Terminal Aerodrome Forecast
Issued by NWS

Home | Current Version | Previous Version | Text Only | Print | Product List | Glossary On
Versions: 1 2 3 4 5 6 7 8 9 10 11 12
753
FTUS46 KSEW 220538
TAFBLI
TAF
KBLI 220538Z 2206/2306 VRB03KT P6SM SCT060 OVC090
      TEMPO 2206/2209 -SHRA BKN060 OVC090
     FM221100 04007KT P6SM BKN090
     FM221900 10010KT P6SM -RA BKN035 OVC060
     FM230100 05005KT P6SM BKN060 BKN100=

USA.gov is the U.S. government's official web portal to all federal, state and local government web resources and services.